• Join FlightAware (Why Join?)
  • Login
  • US Flag 
10:07PM EDT


 

Airport Tracker/Info


-or-


 

Live Flight TrackerFlight Track Log ✈ N818AK ✈ 20-Apr-2013 ✈ KMRY - KSTS

Flight Track Log - Related Links

Times and Time Zones

All times are in EDT time to prevent confusion due to time zone crossing. See the N818AK flight status page for this flight to view local times or setup timezone preferences in your user account.

Time Position Orientation Groundspeed Altitude Reporting Facility
EDT Latitude Longitude Course Direction KTS MPH feet Rate Location/Type
11:25PM 36.6000 -121.8833 293° West 118 136 1,800  Level Northern Cal TRACON
11:25PM 36.6167 -121.9167 302° West 125 144 2,700 840 Climbing Northern Cal TRACON
11:27PM 36.6500 -121.9500 321° Northwest 134 154 3,500 780 Climbing Northern Cal TRACON
11:28PM 36.6667 -122.0000 293° West 135 155 4,500 900 Climbing Northern Cal TRACON
11:29PM 36.6833 -122.0333 302° West 128 147 5,400 900 Climbing Northern Cal TRACON
11:30PM 36.7293 -122.1211 293° West  Level FlightAware Approximate
11:30PM 36.7167 -122.0667 321° Northwest 129 148 6,300  Level Northern Cal TRACON
11:31PM 36.7333 -122.1000 302° West 130 150 7,200 780 Climbing Northern Cal TRACON
11:31PM 36.7411 -122.1286 289° West 129 148 7,700 420 Climbing Oakland Center
11:32PM 36.7722 -122.1542 327° Northwest 147 169 8,000 120 Climbing Oakland Center
11:33PM 36.8119 -122.1919 323° Northwest 176 203 8,000  Level Oakland Center
11:34PM 36.8514 -122.2281 324° Northwest 176 203 8,000  Level Oakland Center
11:36PM 36.8917 -122.2633 325° Northwest 176 203 8,000  Level Oakland Center
11:37PM 36.9333 -122.2989 326° Northwest 180 207 8,000  Level Oakland Center
11:38PM 36.9736 -122.3342 325° Northwest 178 205 8,000  Level Oakland Center
11:39PM 37.0139 -122.3722 323° Northwest 181 208 8,000  Level Oakland Center
11:40PM 37.0636 -122.4131 327° Northwest 179 206 8,000  Level Oakland Center
11:41PM 37.1022 -122.4458 326° Northwest 170 196 8,000  Level Oakland Center
11:42PM 37.1522 -122.4581 349° North 179 206 8,000  Level Oakland Center
11:43PM 37.1983 -122.4792 340° North 176 203 8,000  Level Oakland Center
11:44PM 37.2411 -122.5100 330° Northwest 176 203 8,000  Level Oakland Center
11:45PM 37.2886 -122.5292 342° North 178 205 8,000  Level Oakland Center
11:46PM 37.3350 -122.5489 341° North 175 201 8,000  Level Oakland Center
11:47PM 37.3814 -122.5711 339° North 179 206 8,000  Level Oakland Center
11:48PM 37.4272 -122.5894 342° North 175 201 8,000  Level Oakland Center
11:49PM 37.4744 -122.6053 345° North 175 201 8,000  Level Oakland Center
11:50PM 37.5211 -122.6239 342° North 175 201 8,000  Level Oakland Center
11:51PM 37.5658 -122.6467 338° Northwest 174 200 8,000  Level Oakland Center
11:52PM 37.6108 -122.6667 341° North 173 199 8,000  Level Oakland Center
11:53PM 37.6586 -122.6847 343° North 176 203 8,000  Level Oakland Center
11:54PM 37.7044 -122.7022 343° North 176 203 8,000  Level Oakland Center
11:55PM 37.7542 -122.7061 356° North 178 205 8,000  Level Oakland Center
11:56PM 37.8033 -122.7114 355° North 177 204 8,000  Level Oakland Center
11:57PM 37.8517 -122.7200 352° North 175 201 8,000  Level Oakland Center
11:58PM 37.9017 -122.7267 354° North 178 205 8,000  Level Oakland Center
11:59PM 37.9511 -122.7342 353° North 177 204 8,000 -180 Level Oakland Center
12:00AM 38.0014 -122.7397 355° North 179 206 7,700 -360 Descending Oakland Center
12:01AM 38.0522 -122.7469 354° North 181 208 7,300 -540 Descending Oakland Center
12:02AM 38.1031 -122.7556 352° North 183 211 6,700 -720 Descending Oakland Center
12:03AM 38.1542 -122.7581 358° North 184 212 5,900 -840 Descending Oakland Center
12:04AM 38.2064 -122.7606 358° North 185 213 5,100 -780 Descending Oakland Center
12:05AM 38.2567 -122.7625 358° North 184 212 4,400 -720 Descending Oakland Center